createdAt,value
2023-03-23T00:00:19.192Z,50.875290
2023-03-23T00:01:19.094Z,50.875160
2023-03-23T01:12:47.595Z,50.875355
2023-03-23T01:13:47.575Z,50.875343
2023-03-23T01:14:47.537Z,50.875439
2023-03-23T01:15:47.559Z,50.875252
2023-03-23T01:16:47.530Z,50.875385
2023-03-23T01:17:47.513Z,50.875385
2023-03-23T01:18:47.493Z,50.875515
2023-03-23T01:19:47.537Z,50.875305
2023-03-23T01:20:47.511Z,50.875469
2023-03-23T01:21:47.483Z,50.875446
2023-03-23T01:22:47.504Z,50.875729
2023-03-23T01:23:47.460Z,50.876003
2023-03-23T01:24:47.446Z,50.875977
2023-03-23T01:25:47.457Z,50.875816
2023-03-23T01:26:47.441Z,50.875378
2023-03-23T01:27:47.422Z,50.875301
2023-03-23T01:28:47.430Z,50.875412
2023-03-23T01:29:47.393Z,50.875351
2023-03-23T01:30:47.401Z,50.875332
2023-03-23T01:31:47.396Z,50.875393
2023-03-23T01:32:47.384Z,50.875362
2023-03-23T01:33:47.392Z,50.875412
2023-03-23T01:34:47.377Z,50.875511
2023-03-23T01:35:47.390Z,50.875469
2023-03-23T01:36:47.341Z,50.875439
2023-03-23T01:37:47.382Z,50.875366
2023-03-23T01:38:47.366Z,50.875427
2023-03-23T01:39:47.337Z,50.875351
2023-03-23T01:40:47.350Z,50.875286
2023-03-23T01:41:47.357Z,50.875259
2023-03-23T01:42:47.300Z,50.875298
2023-03-23T01:43:47.302Z,50.875385
2023-03-23T01:44:47.305Z,50.875458
2023-03-23T01:45:47.300Z,50.875408
2023-03-23T01:46:47.268Z,50.875397
2023-03-23T01:47:47.253Z,50.875332
2023-03-23T01:48:47.252Z,50.875355
2023-03-23T01:49:47.242Z,50.875332
2023-03-23T01:50:47.268Z,50.875359
2023-03-23T01:51:47.280Z,50.875465
2023-03-23T01:52:47.240Z,50.875355
2023-03-23T01:53:47.186Z,50.875359
2023-03-23T01:54:47.205Z,50.875431
2023-03-23T01:55:47.207Z,50.875431
2023-03-23T01:56:47.176Z,50.875427
2023-03-23T01:57:47.213Z,50.875412
2023-03-23T01:58:47.134Z,50.875423
2023-03-23T01:59:47.195Z,50.875423
2023-03-23T02:00:47.181Z,50.875408
2023-03-23T02:01:47.172Z,50.875328
2023-03-23T02:02:47.116Z,50.875523
2023-03-23T02:03:47.102Z,50.875458
2023-03-23T02:04:47.096Z,50.875320
2023-03-23T02:05:47.117Z,50.875362
2023-03-23T02:06:47.076Z,50.875069
2023-03-23T02:07:47.110Z,50.875340
2023-03-23T02:08:47.100Z,50.875240
2023-03-23T02:09:47.030Z,50.875366
2023-03-23T02:10:47.018Z,50.875359
2023-03-23T02:11:47.051Z,50.875340
2023-03-23T02:12:47.037Z,50.875439
2023-03-23T02:13:47.012Z,50.875389
2023-03-23T02:14:47.021Z,50.875362
2023-03-23T02:15:47.039Z,50.875435
2023-03-23T02:16:46.974Z,50.875282
2023-03-23T02:17:47.005Z,50.875546
2023-03-23T02:18:46.972Z,50.875355
2023-03-23T02:19:46.974Z,50.875332
2023-03-23T02:20:46.961Z,50.875385
2023-03-23T02:21:46.909Z,50.875134
2023-03-23T02:22:46.928Z,50.875240
2023-03-23T02:23:46.965Z,50.875340
2023-03-23T02:24:46.941Z,50.875362
2023-03-23T02:25:46.946Z,50.875355
2023-03-23T02:26:46.888Z,50.875324
2023-03-23T02:27:46.930Z,50.875309
2023-03-23T02:28:46.883Z,50.875359
2023-03-23T02:29:46.845Z,50.875317
2023-03-23T02:30:46.888Z,50.875500
2023-03-23T02:31:46.841Z,50.875439
2023-03-23T02:32:46.832Z,50.875454
2023-03-23T02:33:46.821Z,50.875397
2023-03-23T02:34:46.827Z,50.875374
2023-03-23T02:35:46.806Z,50.875381
2023-03-23T02:36:46.800Z,50.875366
2023-03-23T02:37:46.777Z,50.875366
2023-03-23T02:38:46.749Z,50.875397
2023-03-23T02:39:46.743Z,50.875481
2023-03-23T02:40:46.748Z,50.875435
2023-03-23T02:41:46.762Z,50.875427
2023-03-23T02:42:46.731Z,50.875362
2023-03-23T02:43:46.695Z,50.875248
2023-03-23T02:44:46.689Z,50.875488
2023-03-23T02:45:46.692Z,50.875355
2023-03-23T02:46:46.675Z,50.875217
2023-03-23T02:47:46.711Z,50.875019
2023-03-23T02:48:46.653Z,50.875267
2023-03-23T02:49:46.675Z,50.875275
2023-03-23T02:50:46.670Z,50.875088
2023-03-23T02:51:46.667Z,50.875385
2023-03-23T02:52:46.615Z,50.875439
2023-03-23T02:53:46.661Z,50.875423
2023-03-23T02:54:46.636Z,50.875347
2023-03-23T02:55:46.602Z,50.875423
2023-03-23T02:56:46.611Z,50.875443
2023-03-23T02:57:46.604Z,50.875233
2023-03-23T02:58:46.574Z,50.875393
2023-03-23T02:59:46.576Z,50.875336
2023-03-23T03:00:46.522Z,50.875393
2023-03-23T03:01:46.538Z,50.875370
2023-03-23T03:02:46.561Z,50.875328
2023-03-23T03:03:46.533Z,50.875237
2023-03-23T03:04:46.511Z,50.875347
2023-03-23T03:05:46.525Z,50.875462
2023-03-23T03:06:46.495Z,50.875462
2023-03-23T03:07:46.460Z,50.875385
2023-03-23T03:08:46.482Z,50.875546
2023-03-23T03:09:46.481Z,50.875580
2023-03-23T03:10:46.445Z,50.875267
2023-03-23T03:11:46.455Z,50.875149
2023-03-23T03:12:46.413Z,50.875439
2023-03-23T03:13:46.446Z,50.875492
2023-03-23T03:14:46.466Z,50.875435
2023-03-23T03:15:46.424Z,50.875568
2023-03-23T03:16:46.382Z,50.875473
2023-03-23T03:17:46.393Z,50.875435
2023-03-23T03:18:46.368Z,50.875454
2023-03-23T03:19:46.356Z,50.875313
2023-03-23T03:20:46.379Z,50.875435
2023-03-23T03:21:46.349Z,50.875374
2023-03-23T03:22:46.362Z,50.875366
2023-03-23T03:23:46.330Z,50.875351
2023-03-23T03:24:46.345Z,50.875408
2023-03-23T03:25:46.312Z,50.875408
2023-03-23T03:26:46.346Z,50.875317
2023-03-23T03:27:46.340Z,50.875351
2023-03-23T03:28:46.283Z,50.875366
2023-03-23T03:29:46.262Z,50.875515
2023-03-23T03:30:46.276Z,50.875462
2023-03-23T03:31:46.249Z,50.875370
2023-03-23T03:32:46.327Z,50.875439
2023-03-23T03:33:46.282Z,50.875389
2023-03-23T03:34:46.240Z,50.875423
2023-03-23T03:35:46.261Z,50.875374
2023-03-23T03:36:46.217Z,50.875370
2023-03-23T03:37:46.223Z,50.875404
2023-03-23T03:38:46.174Z,50.875389
2023-03-23T03:39:46.183Z,50.875370
2023-03-23T03:40:46.201Z,50.875324
2023-03-23T03:41:46.216Z,50.875359
2023-03-23T03:42:46.184Z,50.875393
2023-03-23T03:43:46.159Z,50.875526
2023-03-23T03:44:46.146Z,50.875412
2023-03-23T03:45:46.133Z,50.875412
2023-03-23T03:46:46.157Z,50.875332
2023-03-23T03:47:46.151Z,50.875347
2023-03-23T03:48:46.157Z,50.875317
2023-03-23T03:49:46.104Z,50.875401
2023-03-23T03:50:46.087Z,50.875408
2023-03-23T03:51:46.106Z,50.875401
2023-03-23T03:52:46.088Z,50.875385
2023-03-23T03:53:46.084Z,50.875347
2023-03-23T03:54:46.078Z,50.875366
2023-03-23T03:55:46.020Z,50.875370
2023-03-23T03:56:46.009Z,50.875362
2023-03-23T03:57:46.036Z,50.875393
2023-03-23T03:58:45.993Z,50.875359
2023-03-23T03:59:46.970Z,50.875343
2023-03-23T04:00:45.988Z,50.875355
2023-03-23T04:01:45.966Z,50.875305
2023-03-23T04:02:45.979Z,50.875328
2023-03-23T04:03:45.940Z,50.875484
2023-03-23T04:04:45.931Z,50.875580
2023-03-23T04:05:45.931Z,50.875454
2023-03-23T04:06:46.928Z,50.875301
2023-03-23T04:07:45.905Z,50.875355
2023-03-23T04:08:45.921Z,50.875370
2023-03-23T04:09:46.880Z,50.875378
2023-03-23T04:10:45.865Z,50.875362
2023-03-23T04:11:45.874Z,50.875320
2023-03-23T04:12:45.891Z,50.875256
2023-03-23T04:13:45.915Z,50.875275
2023-03-23T04:14:45.847Z,50.875137
2023-03-23T04:15:45.853Z,50.875202
2023-03-23T04:16:46.887Z,50.875381
2023-03-23T04:17:46.837Z,50.875347
2023-03-23T04:18:45.836Z,50.875065
2023-03-23T04:19:46.805Z,50.875256
2023-03-23T04:20:46.846Z,50.875340
2023-03-23T04:21:45.799Z,50.875263
2023-03-23T04:22:45.801Z,50.875282
2023-03-23T04:23:45.789Z,50.875221
2023-03-23T04:24:56.000Z,50.875217
2023-03-23T04:25:46.777Z,50.875275
2023-03-23T04:26:45.741Z,50.875305
2023-03-23T04:27:45.796Z,50.875446
2023-03-23T04:28:45.736Z,50.875324
2023-03-23T04:29:45.705Z,50.875347
2023-03-23T04:30:45.724Z,50.875252
2023-03-23T04:31:45.721Z,50.875244
2023-03-23T04:32:45.732Z,50.875477
2023-03-23T04:33:59.593Z,50.875484
2023-03-23T04:34:46.678Z,50.875332
2023-03-23T04:35:45.660Z,50.875111
2023-03-23T04:36:57.128Z,50.875134
2023-03-23T04:37:46.665Z,50.875286
2023-03-23T04:38:45.702Z,50.875443
2023-03-23T04:39:45.638Z,50.875507
2023-03-23T04:40:45.612Z,50.875454
2023-03-23T04:41:45.596Z,50.875587
2023-03-23T04:42:45.627Z,50.875599
2023-03-23T04:43:45.566Z,50.875534
2023-03-23T04:44:45.584Z,50.875340
2023-03-23T04:45:45.613Z,50.875141
2023-03-23T04:46:45.556Z,50.875187
2023-03-23T04:47:45.553Z,50.875263
2023-03-23T04:48:45.524Z,50.875362
2023-03-23T04:49:45.575Z,50.875416
2023-03-23T04:50:45.535Z,50.875458
2023-03-23T04:51:45.492Z,50.875309
2023-03-23T04:52:45.479Z,50.875305
2023-03-23T04:53:45.536Z,50.875252
2023-03-23T04:54:45.483Z,50.875420
2023-03-23T04:55:45.466Z,50.875465
2023-03-23T04:56:45.474Z,50.875656
2023-03-23T04:57:45.478Z,50.875641
2023-03-23T04:58:45.441Z,50.875580
2023-03-23T04:59:45.453Z,50.875534
2023-03-23T05:00:45.415Z,50.875473
2023-03-23T05:01:45.438Z,50.875660
2023-03-23T05:02:45.424Z,50.875584
2023-03-23T05:03:45.393Z,50.875381
2023-03-23T05:04:45.389Z,50.875347
2023-03-23T05:05:45.369Z,50.875347
2023-03-23T05:06:45.347Z,50.875477
2023-03-23T05:07:45.465Z,50.875477
2023-03-23T05:08:45.319Z,50.875500
2023-03-23T05:09:45.318Z,50.875343
2023-03-23T05:10:45.335Z,50.875381
2023-03-23T05:11:45.313Z,50.875443
2023-03-23T05:12:45.327Z,50.875286
2023-03-23T05:13:45.301Z,50.875462
2023-03-23T05:14:45.321Z,50.875469
2023-03-23T05:15:45.266Z,50.875469
2023-03-23T05:16:45.225Z,50.875149
2023-03-23T05:17:45.270Z,50.875061
2023-03-23T05:18:45.284Z,50.875202
2023-03-23T05:19:45.237Z,50.875362
2023-03-23T05:20:45.239Z,50.875202
2023-03-23T05:21:45.268Z,50.874977
2023-03-23T05:22:45.260Z,50.875179
2023-03-23T05:23:45.192Z,50.875313
2023-03-23T05:24:45.224Z,50.875282
2023-03-23T05:25:45.204Z,50.875267
2023-03-23T05:26:45.205Z,50.875381
2023-03-23T05:27:45.202Z,50.875366
2023-03-23T05:28:45.204Z,50.875443
2023-03-23T05:29:45.120Z,50.875336
2023-03-23T05:30:45.188Z,50.875366
2023-03-23T05:31:45.194Z,50.875263
2023-03-23T05:32:45.115Z,50.875267
2023-03-23T05:33:45.123Z,50.875263
2023-03-23T05:34:45.060Z,50.875317
2023-03-23T05:35:45.313Z,50.875332
2023-03-23T05:36:45.108Z,50.875366
2023-03-23T05:37:45.048Z,50.875309
2023-03-23T05:38:45.089Z,50.875328
2023-03-23T05:39:45.044Z,50.875374
2023-03-23T05:40:45.018Z,50.875374
2023-03-23T05:41:46.667Z,50.875374
2023-03-23T05:42:45.987Z,50.875374
2023-03-23T05:43:45.014Z,50.875374
2023-03-23T05:44:44.981Z,50.875374
2023-03-23T05:45:44.965Z,50.875374
2023-03-23T05:46:44.970Z,50.875374
2023-03-23T05:47:44.947Z,50.875374
2023-03-23T05:48:44.959Z,50.875374
2023-03-23T05:49:44.921Z,50.875374
2023-03-23T05:50:44.947Z,50.875374
2023-03-23T05:51:44.915Z,50.875374
2023-03-23T05:52:44.933Z,50.875374
2023-03-23T05:53:44.946Z,50.875374
2023-03-23T05:54:44.900Z,50.875374
2023-03-23T05:55:44.879Z,50.875374
2023-03-23T05:56:44.878Z,50.875374
2023-03-23T05:57:44.936Z,50.875374
2023-03-23T05:58:44.841Z,50.875374
2023-03-23T05:59:44.857Z,50.875374
2023-03-23T06:00:44.820Z,50.875374
2023-03-23T06:01:44.844Z,50.875374
2023-03-23T06:02:45.812Z,50.875374
2023-03-23T06:03:44.850Z,50.875374
2023-03-23T06:04:44.776Z,50.875374
2023-03-23T06:05:44.802Z,50.875374
2023-03-23T06:06:44.763Z,50.875374
2023-03-23T06:07:44.760Z,50.875374
2023-03-23T06:08:44.802Z,50.875374
2023-03-23T06:09:44.736Z,50.875374
2023-03-23T06:10:44.727Z,50.875374
2023-03-23T06:11:44.730Z,50.875374
2023-03-23T06:12:44.746Z,50.875374
2023-03-23T06:13:44.759Z,50.875374
2023-03-23T06:14:44.740Z,50.875374
2023-03-23T06:15:44.682Z,50.875374
2023-03-23T06:16:44.687Z,50.875374
2023-03-23T06:17:44.678Z,50.875374
2023-03-23T06:18:44.684Z,50.875374
2023-03-23T06:19:44.638Z,50.875374
2023-03-23T06:20:45.822Z,50.875374
2023-03-23T06:21:44.602Z,50.875374
2023-03-23T06:22:44.590Z,50.875374
2023-03-23T06:23:44.654Z,50.875374
2023-03-23T06:24:44.572Z,50.875374
2023-03-23T06:25:44.595Z,50.875374
2023-03-23T06:26:44.620Z,50.875374
2023-03-23T06:27:46.501Z,50.875374
2023-03-23T06:28:46.645Z,50.875374
2023-03-23T06:29:44.552Z,50.875374
2023-03-23T06:30:44.513Z,50.875374
2023-03-23T06:31:44.481Z,50.875374
2023-03-23T06:32:44.468Z,50.875374
2023-03-23T06:33:44.484Z,50.875374
2023-03-23T06:34:44.464Z,50.875374
2023-03-23T06:35:44.713Z,50.875374
2023-03-23T06:36:44.480Z,50.875374
2023-03-23T06:37:44.412Z,50.875374
2023-03-23T06:38:44.425Z,50.875374
2023-03-23T06:39:44.373Z,50.875374
2023-03-23T06:40:44.393Z,50.875374
2023-03-23T06:41:44.351Z,50.875374
2023-03-23T06:42:44.335Z,50.875374
2023-03-23T06:43:44.378Z,50.875374
2023-03-23T06:44:44.336Z,50.875374
2023-03-23T06:45:44.414Z,50.875374
2023-03-23T06:46:44.331Z,50.875374
2023-03-23T06:47:44.322Z,50.875374
2023-03-23T06:48:44.323Z,50.875374
2023-03-23T06:49:44.385Z,50.875374
2023-03-23T06:50:44.310Z,50.875374
2023-03-23T06:51:44.321Z,50.875374
2023-03-23T06:52:44.293Z,50.875374
2023-03-23T06:53:44.289Z,50.875374
2023-03-23T06:54:44.260Z,50.875374
2023-03-23T06:55:44.241Z,50.875374
2023-03-23T06:56:44.260Z,50.875374
2023-03-23T06:57:44.229Z,50.875374
2023-03-23T06:58:44.242Z,50.875374
2023-03-23T06:59:44.198Z,50.875374
2023-03-23T07:00:44.198Z,50.875374
2023-03-23T07:01:44.188Z,50.875374
2023-03-23T07:02:44.174Z,50.875374
2023-03-23T07:03:44.188Z,50.875374
2023-03-23T07:04:44.219Z,50.875374
2023-03-23T07:05:44.175Z,50.875374
2023-03-23T07:06:44.167Z,50.875374
2023-03-23T07:07:44.145Z,50.875374
2023-03-23T07:08:44.129Z,50.875374
2023-03-23T07:09:44.098Z,50.875374
2023-03-23T07:10:44.122Z,50.875374
2023-03-23T07:11:44.124Z,50.875374
2023-03-23T07:12:44.074Z,50.875374
2023-03-23T07:13:44.130Z,50.875374
2023-03-23T07:14:44.076Z,50.875374
2023-03-23T07:15:44.171Z,50.875374
2023-03-23T07:16:44.192Z,50.875374
2023-03-23T07:17:44.066Z,50.875374
2023-03-23T07:18:44.038Z,50.875374
2023-03-23T07:19:44.107Z,50.875374
2023-03-23T07:20:44.024Z,50.875374
2023-03-23T07:21:43.984Z,50.875374
2023-03-23T07:22:44.020Z,50.875374
2023-03-23T07:23:44.023Z,50.875374
2023-03-23T07:24:44.196Z,50.875374
2023-03-23T07:25:44.100Z,50.875374
2023-03-23T07:26:44.000Z,50.875374
2023-03-23T07:27:44.007Z,50.875374
2023-03-23T07:28:43.981Z,50.875374
2023-03-23T07:29:43.979Z,50.875374
2023-03-23T07:30:43.873Z,50.875374
2023-03-23T07:31:44.959Z,50.875374
2023-03-23T07:32:43.963Z,50.875374
2023-03-23T07:33:43.970Z,50.875374
2023-03-23T07:34:43.855Z,50.875374
2023-03-23T07:35:44.101Z,50.875374
2023-03-23T07:36:43.957Z,50.875374
2023-03-23T07:37:44.095Z,50.875374
2023-03-23T07:38:43.830Z,50.875374
2023-03-23T07:39:43.848Z,50.875374
2023-03-23T07:40:43.871Z,50.875374
2023-03-23T07:41:43.881Z,50.875374
2023-03-23T07:42:43.763Z,50.875374
2023-03-23T07:43:43.803Z,50.875374
2023-03-23T07:44:44.485Z,50.875374
2023-03-23T07:45:43.973Z,50.875374
2023-03-23T07:46:43.770Z,50.875374
2023-03-23T07:47:43.758Z,50.875374
2023-03-23T07:48:43.769Z,50.875374
2023-03-23T07:49:43.781Z,50.875374
2023-03-23T07:50:43.754Z,50.875374
2023-03-23T07:51:43.716Z,50.875374
2023-03-23T07:52:43.693Z,50.875374
2023-03-23T07:53:43.680Z,50.875374
2023-03-23T07:54:43.677Z,50.875374
2023-03-23T07:55:44.088Z,50.875374
2023-03-23T07:56:43.653Z,50.875374
2023-03-23T07:57:43.633Z,50.875374
2023-03-23T07:58:43.668Z,50.875374
2023-03-23T07:59:43.616Z,50.875374
2023-03-23T08:00:43.863Z,50.875374
2023-03-23T08:01:43.557Z,50.875374
2023-03-23T08:02:43.551Z,50.875374
2023-03-23T08:03:43.572Z,50.875374
2023-03-23T08:04:43.609Z,50.875374
2023-03-23T08:05:43.891Z,50.875374
2023-03-23T08:06:44.505Z,50.875374
2023-03-23T08:07:43.545Z,50.875374
2023-03-23T08:08:43.536Z,50.875374
2023-03-23T08:09:43.546Z,50.875374
2023-03-23T08:10:43.613Z,50.875374
2023-03-23T08:11:43.587Z,50.875374
2023-03-23T08:12:43.527Z,50.875374
2023-03-23T08:13:43.611Z,50.875374
2023-03-23T08:14:43.496Z,50.875374
2023-03-23T08:15:43.771Z,50.875374
2023-03-23T08:16:43.609Z,50.875374
2023-03-23T08:17:43.503Z,50.875374
2023-03-23T08:18:43.451Z,50.875374
2023-03-23T08:19:43.522Z,50.875374
2023-03-23T08:20:43.500Z,50.875374
2023-03-23T08:21:43.475Z,50.875401
2023-03-23T08:22:51.404Z,50.875389
2023-03-23T08:23:45.400Z,50.875450
2023-03-23T08:24:43.395Z,50.875420
2023-03-23T08:25:43.738Z,50.875492
2023-03-23T08:26:43.425Z,50.875477
2023-03-23T08:27:43.355Z,50.875492
2023-03-23T08:28:43.409Z,50.875381
2023-03-23T08:29:43.328Z,50.875496
2023-03-23T08:30:43.364Z,50.875366
2023-03-23T08:31:43.325Z,50.875469
2023-03-23T08:32:43.285Z,50.875469
2023-03-23T08:33:43.375Z,50.875557
2023-03-23T08:34:43.303Z,50.875454
2023-03-23T08:35:43.453Z,50.875729
2023-03-23T08:36:43.330Z,50.875454
2023-03-23T08:37:43.294Z,50.875202
2023-03-23T08:38:43.288Z,50.875404
2023-03-23T08:39:43.321Z,50.875347
2023-03-23T08:40:43.195Z,50.875359
2023-03-23T08:41:44.236Z,50.875324
2023-03-23T08:42:43.827Z,50.875278
2023-03-23T08:43:44.315Z,50.875404
2023-03-23T08:44:43.299Z,50.875404
2023-03-23T09:45:48.670Z,50.875248
2023-03-23T09:46:48.623Z,50.875244
2023-03-23T09:47:48.604Z,50.875340
2023-03-23T09:48:48.655Z,50.875393
2023-03-23T09:49:48.598Z,50.875359
2023-03-23T09:50:48.590Z,50.875305
2023-03-23T09:51:48.620Z,50.875134
2023-03-23T09:52:48.518Z,50.875328
2023-03-23T09:53:48.561Z,50.875340
2023-03-23T09:54:48.534Z,50.875412
2023-03-23T09:55:48.453Z,50.875484
2023-03-23T09:56:48.489Z,50.875332
2023-03-23T09:57:48.484Z,50.875336
2023-03-23T09:58:48.448Z,50.875256
2023-03-23T09:59:48.459Z,50.875107
2023-03-23T10:00:48.526Z,50.874954
2023-03-23T10:01:48.444Z,50.874866
2023-03-23T10:02:49.016Z,50.874660
2023-03-23T10:03:48.419Z,50.874939
2023-03-23T10:04:48.424Z,50.875000
2023-03-23T10:05:48.408Z,50.875523
2023-03-23T10:06:48.426Z,50.875393
2023-03-23T10:07:50.309Z,50.875389
2023-03-23T10:08:56.811Z,50.875404
2023-03-23T10:09:50.417Z,50.875355
2023-03-23T10:10:48.329Z,50.875359
2023-03-23T10:11:48.761Z,50.875309
2023-03-23T10:12:49.277Z,50.875435
2023-03-23T10:13:48.251Z,50.875370
2023-03-23T10:14:48.264Z,50.875511
2023-03-23T10:15:48.269Z,50.875732
2023-03-23T10:16:48.287Z,50.876194
2023-03-23T10:17:48.285Z,50.875694
2023-03-23T10:18:48.256Z,50.875423
2023-03-23T10:19:48.230Z,50.875336
2023-03-23T10:20:48.229Z,50.875305
2023-03-23T10:21:48.212Z,50.875332
2023-03-23T10:22:48.288Z,50.875248
2023-03-23T10:23:48.205Z,50.875202
2023-03-23T10:24:48.192Z,50.875389
2023-03-23T10:25:48.179Z,50.875465
2023-03-23T10:26:48.140Z,50.875378
2023-03-23T10:27:48.196Z,50.875378
2023-03-23T10:28:48.128Z,50.875431
2023-03-23T10:29:48.141Z,50.875504
2023-03-23T10:30:48.144Z,50.875435
2023-03-23T10:31:48.079Z,50.875385
2023-03-23T10:32:48.090Z,50.875435
2023-03-23T10:33:48.093Z,50.875347
2023-03-23T10:34:48.084Z,50.875290
2023-03-23T10:35:48.116Z,50.875343
2023-03-23T10:36:48.057Z,50.875374
2023-03-23T10:37:48.069Z,50.875374
2023-03-23T10:38:48.069Z,50.875469
2023-03-23T10:39:48.069Z,50.875439
2023-03-23T10:40:48.123Z,50.875443
2023-03-23T10:41:47.999Z,50.875343
2023-03-23T10:42:48.004Z,50.875313
2023-03-23T10:43:48.025Z,50.875240
2023-03-23T10:44:48.217Z,50.875362
2023-03-23T10:45:59.961Z,50.875195
2023-03-23T10:46:50.042Z,50.875443
2023-03-23T10:47:48.958Z,50.875374
2023-03-23T10:48:48.048Z,50.875462
2023-03-23T10:49:47.925Z,50.875561
2023-03-23T10:50:47.976Z,50.875538
2023-03-23T10:51:47.944Z,50.875458
2023-03-23T10:52:47.927Z,50.875401
2023-03-23T10:53:47.903Z,50.875443
2023-03-23T10:54:47.918Z,50.875427
2023-03-23T10:55:47.933Z,50.875351
2023-03-23T10:56:58.838Z,50.875252
2023-03-23T10:57:49.849Z,50.875366
2023-03-23T10:58:47.829Z,50.875504
2023-03-23T10:59:47.834Z,50.875496
2023-03-23T11:00:47.821Z,50.875320
2023-03-23T11:01:47.801Z,50.875473
2023-03-23T11:02:47.797Z,50.875607
2023-03-23T11:03:47.785Z,50.875557
2023-03-23T11:04:47.794Z,50.875496
2023-03-23T11:05:47.777Z,50.875454
2023-03-23T11:06:47.750Z,50.875374
2023-03-23T11:07:47.748Z,50.875401
2023-03-23T11:08:47.746Z,50.875526
2023-03-23T11:09:47.751Z,50.875660
2023-03-23T11:10:47.748Z,50.875492
2023-03-23T11:11:47.701Z,50.875603
2023-03-23T11:12:47.723Z,50.875435
2023-03-23T11:13:47.689Z,50.875317
2023-03-23T11:14:47.724Z,50.875584
2023-03-23T11:15:47.683Z,50.875530
2023-03-23T11:16:47.654Z,50.875530
2023-03-23T11:17:47.660Z,50.875656
2023-03-23T11:18:47.654Z,50.875423
2023-03-23T11:19:47.645Z,50.875126
2023-03-23T11:20:47.659Z,50.875126
2023-03-23T11:21:47.646Z,50.875267
2023-03-23T11:22:47.618Z,50.875381
2023-03-23T11:23:48.240Z,50.875275
2023-03-23T11:24:47.630Z,50.875648
2023-03-23T11:25:47.643Z,50.875443
2023-03-23T11:26:56.913Z,50.875694
2023-03-23T11:27:49.550Z,50.875675
2023-03-23T11:28:47.518Z,50.875614
2023-03-23T11:29:55.003Z,50.875496
2023-03-23T11:30:48.517Z,50.875584
2023-03-23T11:31:47.524Z,50.875546
2023-03-23T11:32:47.488Z,50.875401
2023-03-23T11:33:52.038Z,50.875393
2023-03-23T11:34:48.483Z,50.875259
2023-03-23T11:35:47.493Z,50.875244
2023-03-23T11:36:47.449Z,50.875256
2023-03-23T11:37:47.438Z,50.875443
2023-03-23T11:38:47.445Z,50.875401
2023-03-23T11:39:47.425Z,50.875462
2023-03-23T11:40:47.413Z,50.875668
2023-03-23T11:41:48.203Z,50.875481
2023-03-23T11:42:47.464Z,50.875561
2023-03-23T11:43:47.496Z,50.875370
2023-03-23T11:44:47.406Z,50.875343
2023-03-23T11:45:47.549Z,50.875359
2023-03-23T11:46:48.460Z,50.875431
2023-03-23T11:47:47.473Z,50.875324
2023-03-23T11:48:47.497Z,50.875385
2023-03-23T11:49:47.476Z,50.875446
2023-03-23T11:50:47.438Z,50.875500
2023-03-23T11:51:47.533Z,50.875362
2023-03-23T11:52:56.164Z,50.875320
2023-03-23T11:54:21.465Z,50.875340
2023-03-23T11:54:47.307Z,50.875351
2023-03-23T11:55:47.328Z,50.875389
2023-03-23T11:56:47.257Z,50.875378
2023-03-23T11:57:47.298Z,50.875328
2023-03-23T11:58:47.348Z,50.875366
2023-03-23T11:59:47.274Z,50.875328
2023-03-23T12:00:48.581Z,50.875317
2023-03-23T12:01:47.236Z,50.875229
2023-03-23T12:02:47.244Z,50.875374
2023-03-23T12:03:47.231Z,50.875408
2023-03-23T12:04:47.189Z,50.875355
2023-03-23T12:05:47.262Z,50.875381
2023-03-23T12:06:47.228Z,50.875332
2023-03-23T12:07:47.167Z,50.875305
2023-03-23T12:08:47.272Z,50.875309
2023-03-23T12:09:47.151Z,50.875393
2023-03-23T12:11:48.167Z,50.875397
2023-03-23T12:12:47.168Z,50.875408
2023-03-23T12:13:52.969Z,50.875343
2023-03-23T12:14:48.103Z,50.875340
2023-03-23T12:15:47.208Z,50.875362
2023-03-23T12:16:47.154Z,50.875332
2023-03-23T12:17:47.136Z,50.875408
2023-03-23T12:18:47.084Z,50.875500
2023-03-23T12:19:47.090Z,50.875465
2023-03-23T12:20:47.113Z,50.875523
2023-03-23T12:21:47.042Z,50.875500
2023-03-23T12:22:47.043Z,50.875305
2023-03-23T12:23:47.032Z,50.875324
2023-03-23T12:24:47.039Z,50.875534
2023-03-23T12:25:51.503Z,50.875511
2023-03-23T12:26:47.066Z,50.875511
2023-03-23T12:27:47.064Z,50.875500
2023-03-23T12:28:47.020Z,50.875427
2023-03-23T12:29:47.061Z,50.875477
2023-03-23T12:30:47.076Z,50.875637
2023-03-23T12:31:47.017Z,50.875484
2023-03-23T12:32:48.033Z,50.875286
2023-03-23T12:33:48.870Z,50.875340
2023-03-23T12:34:46.946Z,50.875397
2023-03-23T12:35:47.079Z,50.875340
2023-03-23T12:36:46.930Z,50.875469
2023-03-23T12:37:47.002Z,50.875351
2023-03-23T12:38:46.953Z,50.875450
2023-03-23T12:39:46.918Z,50.875164
2023-03-23T12:40:47.086Z,50.875389
2023-03-23T12:41:47.002Z,50.875469
2023-03-23T12:42:46.944Z,50.875408
2023-03-23T12:43:46.936Z,50.875526
2023-03-23T12:44:46.928Z,50.875519
2023-03-23T12:45:46.969Z,50.875519
2023-03-23T12:46:47.819Z,50.875542
2023-03-23T12:47:46.884Z,50.875416
2023-03-23T12:48:46.915Z,50.875465
2023-03-23T12:49:46.843Z,50.875587
2023-03-23T12:50:46.894Z,50.875549
2023-03-23T12:51:46.754Z,50.875420
2023-03-23T12:52:46.824Z,50.875324
2023-03-23T12:53:46.756Z,50.875546
2023-03-23T12:54:46.760Z,50.875614
2023-03-23T12:55:46.737Z,50.875637
2023-03-23T12:56:46.776Z,50.875500
2023-03-23T12:57:46.676Z,50.875465
2023-03-23T12:58:47.522Z,50.875710
2023-03-23T12:59:46.716Z,50.875656
2023-03-23T13:00:46.680Z,50.875446
2023-03-23T13:01:46.688Z,50.875607
2023-03-23T13:02:46.703Z,50.875443
2023-03-23T13:03:48.157Z,50.875267
2023-03-23T13:04:47.325Z,50.875282
2023-03-23T13:05:46.741Z,50.875408
2023-03-23T13:06:46.659Z,50.875484
2023-03-23T13:07:46.710Z,50.875469
2023-03-23T13:08:46.640Z,50.875439
2023-03-23T13:09:46.605Z,50.875481
2023-03-23T13:10:46.660Z,50.875439
2023-03-23T13:11:46.596Z,50.875401
2023-03-23T13:12:46.593Z,50.875275
2023-03-23T13:13:54.922Z,50.875454
2023-03-23T13:14:48.639Z,50.875168
2023-03-23T13:15:46.550Z,50.875347
2023-03-23T13:16:46.630Z,50.875492
2023-03-23T13:17:46.639Z,50.875431
2023-03-23T13:18:46.583Z,50.875340
2023-03-23T13:19:46.515Z,50.875454
2023-03-23T13:20:46.485Z,50.875462
2023-03-23T13:21:52.681Z,50.875404
2023-03-23T13:22:50.330Z,50.875240
2023-03-23T13:23:46.470Z,50.875217
2023-03-23T13:24:46.478Z,50.875385
2023-03-23T13:25:46.454Z,50.875641
2023-03-23T13:26:46.483Z,50.875477
2023-03-23T13:27:46.503Z,50.875538
2023-03-23T13:28:46.408Z,50.875427
2023-03-23T13:29:46.419Z,50.875450
2023-03-23T13:30:46.351Z,50.875298
2023-03-23T13:31:46.409Z,50.875381
2023-03-23T13:32:50.062Z,50.875275
2023-03-23T13:33:48.348Z,50.875305
2023-03-23T13:34:46.440Z,50.875275
2023-03-23T13:35:46.491Z,50.875336